Time;durP1;ratioP1;P1;durP2;ratioP2;P2;SDS_P1;SDS_P2;PMS_P1;PMS_P2;Temp;Humidity;BMP_temperature;BMP_pressure;BME280_temperature;BME280_humidity;BME280_pressure;Samples;Min_cycle;Max_cycle;Signal;HPM_P1;HPM_P2
2021/01/13 00:00:21;;;;;;;4.43;2.67;;;;;;;0.88;83.49;97295.91;4878548;29;20514;-82
2021/01/13 00:02:46;;;;;;;4.75;2.35;;;;;;;0.94;83.43;97286.69;4878620;29;20047;-83
2021/01/13 00:05:15;;;;;;;5.05;2.40;;;;;;;1.03;82.34;97293.31;4846492;29;20057;-83
2021/01/13 00:07:43;;;;;;;4.57;2.28;;;;;;;1.02;81.79;97289.16;4862108;29;20412;-83
2021/01/13 00:10:10;;;;;;;4.25;2.88;;;;;;;0.93;81.54;97283.34;4863904;29;20029;-83
2021/01/13 00:12:37;;;;;;;5.80;3.00;;;;;;;0.86;82.13;97282.47;4878504;29;20033;-83
2021/01/13 00:15:04;;;;;;;7.30;3.15;;;;;;;0.80;82.39;97295.22;4862674;29;20114;-83
2021/01/13 00:17:30;;;;;;;9.63;3.83;;;;;;;0.80;83.20;97301.13;4875355;29;20088;-83
2021/01/13 00:19:56;;;;;;;4.25;2.88;;;;;;;0.80;82.24;97300.34;4899171;29;20045;-83
2021/01/13 00:22:24;;;;;;;8.32;3.50;;;;;;;0.77;82.61;97291.22;4876499;29;20187;-83
2021/01/13 00:24:50;;;;;;;5.88;3.20;;;;;;;0.76;82.07;97289.66;4844219;29;20033;-83
2021/01/13 00:27:21;;;;;;;6.22;2.92;;;;;;;0.69;81.21;97292.13;4878534;29;20483;-83
2021/01/13 00:29:48;;;;;;;7.22;3.25;;;;;;;0.61;81.78;97292.22;4849281;29;20048;-82
2021/01/13 00:32:14;;;;;;;7.22;3.38;;;;;;;0.60;83.20;97297.53;4862595;29;20123;-82
2021/01/13 00:34:40;;;;;;;6.05;3.03;;;;;;;0.53;81.99;97285.44;4862414;29;20547;-82
2021/01/13 00:37:07;;;;;;;5.15;2.80;;;;;;;0.50;81.37;97285.78;4862464;29;20477;-82
2021/01/13 00:39:32;;;;;;;7.72;3.90;;;;;;;0.48;81.25;97282.63;4863043;29;20511;-82
2021/01/13 00:41:57;;;;;;;8.73;3.92;;;;;;;0.50;81.13;97293.47;4893852;29;20029;-82
2021/01/13 00:44:23;;;;;;;6.05;3.10;;;;;;;0.40;81.45;97294.72;4892978;29;20079;-81
2021/01/13 00:46:49;;;;;;;9.50;3.47;;;;;;;0.30;82.17;97295.75;4877461;29;20040;-81
2021/01/13 00:49:15;;;;;;;7.00;3.33;;;;;;;0.28;81.75;97294.34;4878003;29;20124;-81
2021/01/13 00:51:42;;;;;;;9.80;3.58;;;;;;;0.18;81.60;97292.81;4877396;29;20097;-82
2021/01/13 00:54:10;;;;;;;6.95;3.30;;;;;;;0.22;82.17;97297.59;4861339;29;20028;-81
2021/01/13 00:56:45;;;;;;;7.10;3.67;;;;;;;0.11;82.43;97303.94;4877136;29;20024;-82
2021/01/13 00:59:11;;;;;;;9.07;3.88;;;;;;;0.23;81.27;97297.44;4876995;29;20092;-81
2021/01/13 01:01:39;;;;;;;9.70;3.33;;;;;;;0.16;81.22;97293.97;4892083;29;20024;-82
2021/01/13 01:04:05;;;;;;;8.50;3.10;;;;;;;0.15;81.42;97305.97;4875356;29;20088;-82
2021/01/13 01:06:30;;;;;;;8.50;3.50;;;;;;;0.16;82.07;97310.13;4874504;29;20033;-82
2021/01/13 01:08:56;;;;;;;6.28;3.28;;;;;;;0.13;81.39;97307.13;4878072;29;20036;-82
2021/01/13 01:11:26;;;;;;;9.43;4.00;;;;;;;0.05;81.56;97314.88;4858153;29;20025;-82
2021/01/13 01:13:51;;;;;;;5.70;3.25;;;;;;;0.10;81.76;97320.28;4874366;29;20499;-81
2021/01/13 01:16:17;;;;;;;6.68;3.53;;;;;;;0.10;81.10;97317.72;4891001;29;20100;-81
2021/01/13 01:18:43;;;;;;;6.25;3.55;;;;;;;0.08;81.17;97323.00;4874324;29;20679;-82
2021/01/13 01:21:09;;;;;;;8.93;4.30;;;;;;;0.02;81.12;97308.34;4893103;29;20039;-82
2021/01/13 01:23:36;;;;;;;7.93;4.22;;;;;;;-0.03;81.32;97313.19;4877126;29;20501;-81
2021/01/13 01:26:03;;;;;;;8.07;4.35;;;;;;;-0.08;81.74;97310.38;4876088;29;20326;-82
2021/01/13 01:28:28;;;;;;;10.57;4.28;;;;;;;-0.06;81.62;97316.09;4877590;29;20554;-81
2021/01/13 01:30:55;;;;;;;10.88;4.60;;;;;;;-0.08;81.48;97318.81;4879507;29;20044;-81
2021/01/13 01:33:20;;;;;;;9.93;4.45;;;;;;;-0.18;81.73;97322.59;4887942;29;20050;-81
2021/01/13 01:35:46;;;;;;;8.50;3.95;;;;;;;-0.12;81.77;97321.91;4861332;29;20033;-81
2021/01/13 01:38:12;;;;;;;9.13;3.90;;;;;;;-0.10;81.53;97330.22;4879773;29;20045;-81
2021/01/13 01:40:37;;;;;;;10.38;4.80;;;;;;;-0.11;81.63;97334.53;4857318;29;20040;-83
2021/01/13 01:43:03;;;;;;;7.50;3.47;;;;;;;-0.13;81.14;97328.00;4892527;29;20130;-82
2021/01/13 01:45:31;;;;;;;8.40;4.18;;;;;;;-0.13;80.98;97344.13;4892596;29;20108;-82
2021/01/13 01:48:38;;;;;;;6.32;3.55;;;;;;;-0.33;81.73;97345.56;4877109;29;20051;-82
2021/01/13 01:51:03;;;;;;;9.80;4.60;;;;;;;-0.17;82.04;97349.75;4801410;29;20231;-82
2021/01/13 01:53:48;;;;;;;10.15;4.65;;;;;;;-0.22;81.47;97340.06;4819314;29;20049;-82
2021/01/13 01:56:20;;;;;;;8.10;3.78;;;;;;;-0.32;81.00;97339.50;4835232;29;20549;-82
2021/01/13 01:58:48;;;;;;;10.85;5.47;;;;;;;-0.22;82.00;97350.28;4817140;29;20030;-82
2021/01/13 02:01:26;;;;;;;10.38;4.90;;;;;;;-0.32;81.98;97353.06;4821062;29;20052;-83
2021/01/13 02:03:53;;;;;;;11.65;5.30;;;;;;;-0.33;82.43;97341.25;4935416;24;20119;-78
2021/01/13 02:06:25;;;;;;;15.43;5.38;;;;;;;-0.47;82.96;97339.44;4912665;29;20040;-78
2021/01/13 02:08:52;;;;;;;11.15;5.45;;;;;;;-0.31;83.22;97336.78;4911921;29;20059;-78
2021/01/13 02:11:25;;;;;;;13.05;6.38;;;;;;;-0.42;82.99;97345.63;4913067;29;20106;-79
2021/01/13 02:13:51;;;;;;;9.70;4.93;;;;;;;-0.31;82.87;97341.88;4877767;29;20128;-79
2021/01/13 02:16:18;;;;;;;12.75;5.13;;;;;;;-0.16;83.24;97341.13;4909900;29;20029;-79
2021/01/13 02:18:46;;;;;;;10.00;4.95;;;;;;;-0.17;82.21;97331.84;4912501;29;20070;-79
2021/01/13 02:21:16;;;;;;;11.85;5.13;;;;;;;-0.15;82.33;97335.84;4912725;29;20035;-79
2021/01/13 02:23:45;;;;;;;12.25;5.78;;;;;;;-0.08;82.18;97343.63;4911786;29;20068;-78
2021/01/13 02:26:38;;;;;;;12.10;4.97;;;;;;;-0.15;82.44;97343.53;4913475;29;20032;-79
2021/01/13 02:29:20;;;;;;;10.73;5.20;;;;;;;-0.02;81.73;97343.75;4927676;29;20043;-78
2021/01/13 02:32:20;;;;;;;11.55;4.80;;;;;;;-0.21;81.66;97339.91;4912577;29;20063;-79
2021/01/13 02:34:53;;;;;;;8.88;5.00;;;;;;;-0.21;80.16;97328.84;4917895;29;20040;-79
2021/01/13 02:37:59;;;;;;;10.55;4.95;;;;;;;-0.31;79.83;97339.31;4912798;29;20515;-79
2021/01/13 02:40:27;;;;;;;11.50;4.87;;;;;;;-0.41;80.26;97336.97;4912951;29;20383;-79
2021/01/13 02:43:02;;;;;;;12.23;6.22;;;;;;;-0.42;80.50;97349.94;4909679;29;20368;-80
2021/01/13 02:45:29;;;;;;;16.33;6.88;;;;;;;-0.43;80.79;97361.13;4912410;29;20036;-80
2021/01/13 02:47:58;;;;;;;11.32;6.40;;;;;;;-0.61;80.67;97364.75;4935346;29;20132;-80
2021/01/13 02:50:27;;;;;;;12.50;5.57;;;;;;;-0.62;80.60;97357.25;4917854;29;20032;-79
2021/01/13 02:53:30;;;;;;;12.35;5.82;;;;;;;-0.81;80.64;97348.25;4916886;29;20036;-79
2021/01/13 02:55:56;;;;;;;11.63;4.55;;;;;;;-0.65;80.18;97365.25;4915662;29;20616;-80
2021/01/13 02:58:26;;;;;;;7.72;4.25;;;;;;;-0.77;80.45;97369.97;4917102;29;20391;-80
2021/01/13 03:00:53;;;;;;;10.70;5.22;;;;;;;-0.86;81.13;97360.72;4917804;29;20036;-80
2021/01/13 03:03:20;;;;;;;8.77;4.38;;;;;;;-0.90;80.84;97356.91;4915958;29;20104;-80
2021/01/13 03:05:46;;;;;;;10.30;3.92;;;;;;;-0.77;81.00;97364.84;4901052;29;20114;-80
2021/01/13 03:08:13;;;;;;;8.18;4.72;;;;;;;-0.83;80.63;97356.06;4900813;29;20048;-80
2021/01/13 03:10:40;;;;;;;9.38;4.57;;;;;;;-0.93;80.89;97359.81;4885224;29;20107;-80
2021/01/13 03:13:10;;;;;;;10.95;4.50;;;;;;;-0.94;80.97;97353.91;4900974;29;20032;-79
2021/01/13 03:15:37;;;;;;;10.68;4.07;;;;;;;-0.98;81.01;97363.66;4870415;29;20454;-80
2021/01/13 03:18:07;;;;;;;7.47;3.63;;;;;;;-1.05;81.27;97357.59;4900734;29;20024;-80
2021/01/13 03:20:49;;;;;;;10.13;4.10;;;;;;;-1.09;80.84;97364.00;4917945;29;20039;-80
2021/01/13 03:23:31;;;;;;;8.35;4.40;;;;;;;-1.13;81.32;97352.53;4907397;29;20040;-80
2021/01/13 03:26:04;;;;;;;8.88;4.03;;;;;;;-0.97;80.74;97379.78;4903771;29;20033;-83
2021/01/13 03:28:33;;;;;;;8.55;3.67;;;;;;;-1.00;80.03;97369.88;4897708;29;20083;-81
2021/01/13 03:30:59;;;;;;;6.03;3.30;;;;;;;-0.99;81.16;97382.50;4917650;29;20040;-80
2021/01/13 03:33:25;;;;;;;9.40;4.95;;;;;;;-1.06;80.50;97386.69;4899144;29;20408;-81
2021/01/13 03:36:05;;;;;;;8.27;4.07;;;;;;;-1.18;81.04;97388.00;4914396;29;20084;-80
2021/01/13 03:38:32;;;;;;;7.60;3.97;;;;;;;-1.00;80.20;97387.78;4898547;29;20031;-81
2021/01/13 03:41:03;;;;;;;10.18;4.18;;;;;;;-1.03;80.76;97391.47;4884487;29;20488;-81
2021/01/13 03:43:37;;;;;;;7.22;3.30;;;;;;;-1.11;80.45;97388.94;4899590;29;20039;-81
2021/01/13 03:46:07;;;;;;;8.65;3.80;;;;;;;-1.19;80.56;97391.50;4900728;29;20029;-81
2021/01/13 03:48:46;;;;;;;9.05;3.83;;;;;;;-1.29;80.41;97396.00;4882369;29;20036;-81
2021/01/13 03:51:40;;;;;;;7.97;4.22;;;;;;;-1.27;80.67;97394.09;4920300;29;20368;-82
2021/01/13 03:54:07;;;;;;;8.93;4.05;;;;;;;-1.20;81.11;97387.34;4887092;29;20036;-81
2021/01/13 03:56:55;;;;;;;9.35;4.03;;;;;;;-1.36;81.47;97390.75;4885128;29;20032;-81
2021/01/13 03:59:52;;;;;;;8.02;3.75;;;;;;;-1.19;80.95;97401.72;4866670;29;20699;-81
2021/01/13 04:02:24;;;;;;;10.77;4.03;;;;;;;-1.13;80.99;97401.09;4890308;29;20419;-82
2021/01/13 04:05:24;;;;;;;9.52;4.15;;;;;;;-1.18;81.25;97400.78;4886538;29;20115;-82
2021/01/13 04:07:54;;;;;;;8.40;4.07;;;;;;;-1.09;82.05;97399.00;4896569;29;20152;-82
2021/01/13 04:10:29;;;;;;;10.05;4.50;;;;;;;-0.97;81.89;97397.69;4918194;29;20047;-82
2021/01/13 04:12:56;;;;;;;11.27;4.43;;;;;;;-0.86;81.92;97396.50;4917059;29;20036;-81
2021/01/13 04:15:50;;;;;;;10.57;4.15;;;;;;;-1.08;82.14;97401.41;4891923;29;20079;-82
2021/01/13 04:18:18;;;;;;;10.40;4.20;;;;;;;-0.82;81.78;97393.47;4897441;29;20115;-82
2021/01/13 04:20:44;;;;;;;9.52;4.55;;;;;;;-0.81;82.22;97404.47;4907545;29;20025;-82
2021/01/13 04:23:10;;;;;;;10.27;2.97;;;;;;;-0.81;82.29;97410.38;4885463;29;20058;-82
2021/01/13 04:25:35;;;;;;;7.55;3.80;;;;;;;-0.74;82.07;97410.50;4897473;29;20028;-82
2021/01/13 04:28:01;;;;;;;9.80;3.53;;;;;;;-0.72;80.97;97412.91;4913360;29;20044;-82
2021/01/13 04:30:30;;;;;;;8.82;3.42;;;;;;;-0.82;80.43;97413.13;4904816;29;20043;-82
2021/01/13 04:32:57;;;;;;;8.55;4.38;;;;;;;-0.79;80.02;97413.59;4900129;29;20036;-82
2021/01/13 04:35:27;;;;;;;11.98;4.65;;;;;;;-0.87;81.41;97411.06;4900783;29;20036;-82
2021/01/13 04:37:55;;;;;;;10.77;3.60;;;;;;;-0.98;80.62;97404.56;4881888;29;20389;-81
2021/01/13 04:40:31;;;;;;;7.90;3.05;;;;;;;-1.01;80.93;97404.88;4900820;29;20032;-81
2021/01/13 04:43:07;;;;;;;9.82;3.25;;;;;;;-1.00;81.01;97419.22;4898926;29;20044;-81
2021/01/13 04:45:43;;;;;;;8.07;3.05;;;;;;;-0.95;81.45;97413.63;4893525;29;20032;-81
2021/01/13 04:48:11;;;;;;;9.15;3.70;;;;;;;-0.87;81.74;97410.28;4893609;29;20036;-81
2021/01/13 04:50:45;;;;;;;6.88;3.17;;;;;;;-1.05;81.07;97413.81;4883565;29;20041;-81
2021/01/13 04:53:14;;;;;;;9.77;3.65;;;;;;;-0.99;81.40;97408.06;4915607;29;20040;-82
2021/01/13 04:55:44;;;;;;;8.98;3.15;;;;;;;-0.93;81.16;97421.13;4900052;29;20028;-82
2021/01/13 04:58:37;;;;;;;8.88;3.00;;;;;;;-0.97;81.18;97424.03;4899801;29;20121;-81
2021/01/13 05:01:40;;;;;;;8.85;3.55;;;;;;;-0.96;81.01;97419.69;4918548;29;20047;-81
2021/01/13 05:04:27;;;;;;;5.65;3.15;;;;;;;-1.02;81.03;97421.16;4914925;29;20547;-82
2021/01/13 05:07:01;;;;;;;7.15;3.63;;;;;;;-1.02;80.74;97421.16;4915542;29;20044;-81
2021/01/13 05:09:32;;;;;;;9.65;3.13;;;;;;;-1.14;81.75;97407.16;4916371;29;20030;-81
2021/01/13 05:12:05;;;;;;;7.60;3.28;;;;;;;-1.14;82.14;97414.81;4897536;29;20457;-81
2021/01/13 05:14:33;;;;;;;8.13;3.38;;;;;;;-0.97;81.57;97424.03;4896655;29;20036;-82
2021/01/13 05:17:05;;;;;;;6.60;3.30;;;;;;;-1.02;81.08;97410.94;4884028;29;20424;-81
2021/01/13 05:20:02;;;;;;;12.63;3.97;;;;;;;-1.09;81.66;97411.78;4883770;29;20446;-82
2021/01/13 05:22:32;;;;;;;7.47;2.92;;;;;;;-0.93;81.16;97410.91;4911202;29;20043;-82
2021/01/13 05:25:08;;;;;;;8.23;3.17;;;;;;;-1.05;80.90;97410.47;4899365;29;20036;-81
2021/01/13 05:27:46;;;;;;;5.65;2.35;;;;;;;-0.97;80.08;97416.34;4883504;29;20032;-81
2021/01/13 05:30:13;;;;;;;4.88;3.17;;;;;;;-1.00;80.74;97395.44;4915019;29;20043;-82
2021/01/13 05:32:40;;;;;;;9.00;3.65;;;;;;;-1.02;81.00;97413.50;4899542;29;20043;-82
2021/01/13 05:35:07;;;;;;;7.25;3.13;;;;;;;-0.93;81.07;97426.25;4896946;29;20032;-82
2021/01/13 05:37:52;;;;;;;8.20;3.40;;;;;;;-1.10;81.13;97425.50;4912105;29;20111;-82
2021/01/13 05:40:19;;;;;;;11.68;3.15;;;;;;;-1.00;80.97;97424.34;4907606;29;20548;-82
2021/01/13 05:42:45;;;;;;;7.70;3.30;;;;;;;-1.04;80.54;97417.19;4898879;29;20463;-82
2021/01/13 05:45:12;;;;;;;8.85;3.15;;;;;;;-1.09;80.12;97417.69;4879534;29;20478;-82
2021/01/13 05:47:55;;;;;;;6.32;2.88;;;;;;;-1.14;80.11;97430.16;4899694;29;20121;-82
2021/01/13 05:50:24;;;;;;;6.65;3.33;;;;;;;-1.23;79.78;97423.47;4900373;29;20391;-82
2021/01/13 05:52:52;;;;;;;10.35;3.50;;;;;;;-1.21;80.44;97424.88;4899687;29;20387;-82
2021/01/13 05:55:19;;;;;;;9.07;3.72;;;;;;;-1.15;80.42;97434.47;4884454;29;20040;-82
2021/01/13 05:57:55;;;;;;;9.30;4.47;;;;;;;-1.28;81.18;97418.06;4899523;29;20039;-82
2021/01/13 06:00:26;;;;;;;14.52;4.47;;;;;;;-1.26;81.57;97427.13;4883581;29;20038;-82
2021/01/13 06:03:13;;;;;;;10.68;4.28;;;;;;;-1.21;81.70;97444.53;4894989;29;20060;-84
2021/01/13 06:05:48;;;;;;;12.93;5.47;;;;;;;-1.23;82.25;97420.91;4880267;29;20044;-84
2021/01/13 06:08:15;;;;;;;14.43;5.78;;;;;;;-1.06;81.65;97425.00;4894745;29;20029;-84
2021/01/13 06:10:41;;;;;;;12.93;5.25;;;;;;;-0.99;82.08;97428.50;4880590;29;20037;-84
2021/01/13 06:13:07;;;;;;;14.23;5.93;;;;;;;-1.05;82.86;97418.94;4881371;29;20641;-84
2021/01/13 06:15:33;;;;;;;14.52;5.82;;;;;;;-0.97;82.57;97420.69;4881047;29;20108;-83
2021/01/13 06:18:00;;;;;;;15.05;5.72;;;;;;;-1.06;82.26;97427.56;4876856;29;20068;-83
2021/01/13 06:20:30;;;;;;;16.05;6.35;;;;;;;-1.02;82.79;97433.16;4885943;29;20036;-83
2021/01/13 06:22:58;;;;;;;14.38;5.68;;;;;;;-1.10;82.12;97416.06;4869627;29;20651;-85
2021/01/13 06:25:27;;;;;;;15.43;6.10;;;;;;;-1.02;81.88;97416.06;4875636;29;20035;-84
2021/01/13 06:28:17;;;;;;;12.43;5.10;;;;;;;-1.10;81.99;97433.94;4865116;29;20515;-83
2021/01/13 06:30:44;;;;;;;13.45;5.43;;;;;;;-0.98;81.90;97431.84;4893748;29;20391;-84
2021/01/13 06:33:18;;;;;;;8.07;4.97;;;;;;;-1.09;81.98;97430.44;4897171;29;20040;-83
2021/01/13 06:36:04;;;;;;;13.57;5.30;;;;;;;-1.16;81.88;97421.84;4898419;29;20034;-83
2021/01/13 06:38:46;;;;;;;13.50;5.57;;;;;;;-1.06;81.53;97425.00;4896243;29;20104;-84
2021/01/13 06:41:13;;;;;;;10.15;5.20;;;;;;;-1.03;81.13;97427.25;4881435;29;20055;-82
2021/01/13 06:43:55;;;;;;;7.95;4.60;;;;;;;-1.18;81.32;97426.34;4874696;29;20120;-81
2021/01/13 06:46:21;;;;;;;11.98;5.85;;;;;;;-1.02;81.17;97435.72;4890459;29;20029;-81
2021/01/13 06:48:47;;;;;;;16.00;6.57;;;;;;;-1.06;81.31;97427.56;4890541;29;20041;-81
2021/01/13 06:51:14;;;;;;;12.50;6.32;;;;;;;-1.15;82.04;97431.09;4879402;29;20064;-81
2021/01/13 06:53:44;;;;;;;11.68;5.78;;;;;;;-1.15;81.51;97428.53;4858911;29;20033;-80
2021/01/13 06:56:11;;;;;;;11.65;5.50;;;;;;;-1.08;81.57;97424.38;4845897;29;20029;-81
2021/01/13 06:58:54;;;;;;;15.13;5.57;;;;;;;-1.08;82.18;97436.34;4878776;29;20387;-81
2021/01/13 07:01:20;;;;;;;14.70;6.05;;;;;;;-0.94;81.63;97430.56;4885703;29;20050;-81
2021/01/13 07:03:56;;;;;;;12.85;5.50;;;;;;;-1.14;81.38;97435.25;4897403;29;20084;-81
2021/01/13 07:06:21;;;;;;;15.32;5.82;;;;;;;-0.97;82.39;97428.34;4909099;29;20040;-81
2021/01/13 07:08:47;;;;;;;14.85;5.57;;;;;;;-1.08;83.04;97434.63;4882720;29;20369;-81
2021/01/13 07:11:13;;;;;;;13.43;6.00;;;;;;;-0.88;82.12;97442.69;4879049;29;20049;-81
2021/01/13 07:13:41;;;;;;;14.75;5.93;;;;;;;-0.99;82.10;97437.94;4919123;29;20048;-81
2021/01/13 07:16:08;;;;;;;15.52;6.28;;;;;;;-0.87;82.02;97438.38;4896122;29;20033;-81
2021/01/13 07:18:37;;;;;;;13.38;5.78;;;;;;;-0.82;82.35;97448.91;4910456;29;20040;-81
2021/01/13 07:21:07;;;;;;;15.15;6.55;;;;;;;-0.88;82.66;97458.03;4907646;29;20511;-81
2021/01/13 07:23:33;;;;;;;11.98;6.13;;;;;;;-0.79;82.72;97448.56;4908043;29;20438;-81
2021/01/13 07:25:59;;;;;;;16.38;7.05;;;;;;;-0.77;82.57;97454.34;4897384;29;20048;-82
2021/01/13 07:28:25;;;;;;;14.25;6.55;;;;;;;-0.80;83.15;97440.09;4914193;29;20032;-82
2021/01/13 07:30:52;;;;;;;16.60;6.63;;;;;;;-0.71;83.09;97456.22;4908983;29;20029;-80
2021/01/13 07:33:19;;;;;;;14.18;6.88;;;;;;;-0.60;82.30;97455.84;4915973;29;20044;-82
2021/01/13 07:35:46;;;;;;;14.75;6.65;;;;;;;-0.55;83.12;97457.09;4913132;29;20035;-81
2021/01/13 07:38:22;;;;;;;15.88;6.93;;;;;;;-0.68;82.56;97458.44;4910951;29;20028;-81
2021/01/13 07:40:58;;;;;;;19.33;7.40;;;;;;;-0.63;82.89;97457.94;4910779;29;20024;-82
2021/01/13 07:44:03;;;;;;;16.17;7.55;;;;;;;-0.62;82.80;97452.69;4914595;29;20047;-82
2021/01/13 07:46:31;;;;;;;20.52;7.88;;;;;;;-0.50;83.18;97447.19;4899564;29;20061;-82
2021/01/13 07:49:23;;;;;;;17.58;7.45;;;;;;;-0.42;82.93;97467.59;4891469;29;20041;-81
2021/01/13 07:51:53;;;;;;;17.88;7.43;;;;;;;-0.54;83.43;97453.59;4896468;29;20115;-82
2021/01/13 07:54:35;;;;;;;20.50;8.50;;;;;;;-0.60;83.39;97455.03;4885015;29;20219;-83
2021/01/13 07:57:06;;;;;;;15.57;7.93;;;;;;;-0.49;83.24;97451.34;4914911;29;20360;-82
2021/01/13 07:59:42;;;;;;;14.60;7.40;;;;;;;-0.56;83.29;97458.88;4903477;29;20032;-82
2021/01/13 08:02:41;;;;;;;24.52;9.32;;;;;;;-0.44;83.44;97472.09;4908323;29;20072;-82
2021/01/13 08:05:16;;;;;;;20.92;8.55;;;;;;;-0.30;83.07;97468.03;4898481;29;20028;-81
2021/01/13 08:07:43;;;;;;;21.42;10.63;;;;;;;-0.19;82.89;97480.44;4916166;29;20318;-81
2021/01/13 08:10:10;;;;;;;21.85;9.52;;;;;;;-0.28;83.79;97466.88;4899184;29;20431;-81
2021/01/13 08:12:44;;;;;;;18.58;9.20;;;;;;;-0.22;83.42;97471.34;4929471;29;20131;-81
2021/01/13 08:15:43;;;;;;;19.48;8.82;;;;;;;-0.22;83.69;97471.34;4915623;29;20039;-81
2021/01/13 08:18:41;;;;;;;23.00;8.63;;;;;;;-0.12;83.44;97470.31;4912770;29;20541;-81
2021/01/13 08:24:16;;;;;;;19.73;7.90;;;;;;;-0.04;84.05;97475.41;4875262;29;20045;-82
2021/01/13 08:26:52;;;;;;;18.40;8.27;;;;;;;-0.06;83.39;97485.03;4900312;29;20036;-81
2021/01/13 08:29:20;;;;;;;21.60;8.95;;;;;;;-0.07;83.88;97466.31;4929239;29;20039;-82
2021/01/13 08:32:02;;;;;;;19.02;7.80;;;;;;;-0.03;83.36;97477.00;4910483;29;20472;-82
2021/01/13 08:34:44;;;;;;;19.35;7.80;;;;;;;0.08;83.14;97481.72;4899684;29;20075;-81
2021/01/13 08:37:11;;;;;;;19.98;7.90;;;;;;;0.16;83.36;97486.81;4903008;29;20378;-81
2021/01/13 08:39:38;;;;;;;21.63;8.70;;;;;;;0.24;83.61;97485.16;4899455;29;20040;-81
2021/01/13 08:42:18;;;;;;;21.73;9.07;;;;;;;0.01;83.46;97475.69;4896963;29;20461;-82
2021/01/13 08:44:44;;;;;;;21.48;9.05;;;;;;;0.25;83.21;97474.72;4914755;29;20024;-81
2021/01/13 08:47:10;;;;;;;23.42;9.88;;;;;;;0.25;83.28;97469.63;4883727;29;20122;-81
2021/01/13 08:49:36;;;;;;;18.48;9.27;;;;;;;0.30;83.08;97469.09;4898127;29;20115;-81
2021/01/13 08:52:21;;;;;;;21.58;9.15;;;;;;;0.03;83.36;97489.13;4915215;29;20047;-81
2021/01/13 08:54:56;;;;;;;17.13;7.97;;;;;;;0.20;83.11;97489.03;4897793;29;20032;-81
2021/01/13 08:57:25;;;;;;;19.33;7.90;;;;;;;0.22;83.01;97487.09;4915024;29;20413;-81
2021/01/13 08:59:52;;;;;;;20.83;8.60;;;;;;;0.27;83.17;97500.19;4882172;29;20036;-81
2021/01/13 09:02:19;;;;;;;21.50;8.25;;;;;;;0.34;83.18;97490.84;4897400;29;20052;-82
2021/01/13 09:04:50;;;;;;;15.27;7.65;;;;;;;0.42;82.69;97495.13;4882276;29;20107;-81
2021/01/13 09:07:26;;;;;;;18.13;8.10;;;;;;;0.36;83.19;97483.78;4879592;29;20103;-80
2021/01/13 09:09:55;;;;;;;13.43;7.47;;;;;;;0.51;82.04;97487.19;4896815;29;20028;-80
2021/01/13 09:12:32;;;;;;;14.30;8.32;;;;;;;0.48;82.43;97482.44;4913559;29;20372;-80
2021/01/13 09:15:07;;;;;;;19.13;9.20;;;;;;;0.42;83.37;97488.22;4900508;29;20036;-81
2021/01/13 09:17:33;;;;;;;19.27;8.32;;;;;;;0.50;83.03;97485.59;4911309;29;20165;-80
2021/01/13 09:20:07;;;;;;;22.27;9.25;;;;;;;0.30;83.39;97480.13;4913325;29;20032;-83
2021/01/13 09:22:51;;;;;;;17.27;8.18;;;;;;;0.48;82.29;97492.66;4911791;29;20032;-80
2021/01/13 09:25:44;;;;;;;18.37;8.37;;;;;;;0.48;82.94;97497.78;4898709;29;20652;-80
2021/01/13 09:28:18;;;;;;;20.25;8.23;;;;;;;0.57;82.35;97493.41;4887611;29;20470;-80
2021/01/13 09:30:43;;;;;;;20.15;8.40;;;;;;;0.75;82.19;97487.94;4895853;29;20031;-80
2021/01/13 09:33:21;;;;;;;16.50;8.90;;;;;;;0.65;82.22;97480.53;4895181;29;20506;-81
2021/01/13 09:35:48;;;;;;;20.60;9.02;;;;;;;0.73;82.41;97471.97;4896764;29;20028;-80
2021/01/13 09:38:24;;;;;;;21.40;9.27;;;;;;;0.80;82.72;97493.34;4879965;29;20060;-81
2021/01/13 09:41:07;;;;;;;20.48;9.93;;;;;;;0.61;82.79;97493.84;4911776;29;20028;-80
2021/01/13 09:43:33;;;;;;;20.65;9.20;;;;;;;0.80;83.07;97490.78;4896410;29;20234;-81
2021/01/13 09:46:01;;;;;;;20.30;9.57;;;;;;;0.86;82.55;97500.38;4912683;29;20138;-80
2021/01/13 09:48:31;;;;;;;22.50;10.27;;;;;;;0.87;82.57;97489.13;4894822;29;20039;-80
2021/01/13 09:51:07;;;;;;;17.73;9.05;;;;;;;0.95;81.87;97497.72;4870759;29;20046;-80
2021/01/13 09:53:36;;;;;;;19.13;8.65;;;;;;;0.93;82.09;97493.56;4895390;29;20416;-80
2021/01/13 09:56:07;;;;;;;19.77;8.10;;;;;;;0.83;81.70;97490.44;4898500;29;20618;-80
2021/01/13 09:58:44;;;;;;;19.02;8.38;;;;;;;0.83;81.53;97494.78;4897192;29;20036;-80
2021/01/13 10:01:16;;;;;;;17.75;8.70;;;;;;;0.85;81.79;97497.97;4894722;29;20047;-80
2021/01/13 10:03:45;;;;;;;22.13;9.68;;;;;;;0.87;82.58;97489.13;4904034;29;20142;-80
2021/01/13 10:06:16;;;;;;;20.40;9.30;;;;;;;0.95;82.01;97484.91;4911689;29;20294;-80
2021/01/13 10:08:41;;;;;;;16.77;8.52;;;;;;;1.07;82.67;97498.88;4900821;29;20036;-80
2021/01/13 10:11:08;;;;;;;16.20;7.65;;;;;;;1.13;82.09;97498.16;4903222;29;20107;-80
2021/01/13 10:13:37;;;;;;;20.83;8.43;;;;;;;1.11;82.18;97493.25;4892248;29;20044;-79
2021/01/13 10:16:07;;;;;;;15.73;7.30;;;;;;;1.21;80.95;97492.19;4908484;29;20032;-79
2021/01/13 10:18:33;;;;;;;16.35;7.60;;;;;;;1.33;80.86;97480.50;4872311;29;20432;-79
2021/01/13 10:21:02;;;;;;;14.73;7.70;;;;;;;1.32;81.44;97473.78;4911524;29;20518;-79
2021/01/13 10:23:30;;;;;;;17.42;7.40;;;;;;;1.43;81.46;97475.09;4900886;29;20034;-80
2021/01/13 10:26:07;;;;;;;14.63;7.40;;;;;;;1.35;80.85;97472.63;4910763;29;20036;-80
2021/01/13 10:28:34;;;;;;;14.32;6.82;;;;;;;1.39;81.50;97453.31;4910415;29;20036;-79
2021/01/13 10:31:04;;;;;;;20.73;8.23;;;;;;;1.50;80.24;97475.97;4904314;29;20032;-79
2021/01/13 10:33:44;;;;;;;17.58;7.25;;;;;;;1.31;81.97;97465.28;4897719;29;20036;-79
2021/01/13 10:36:38;;;;;;;14.32;7.32;;;;;;;1.47;81.02;97472.00;4906443;29;20056;-80
2021/01/13 10:39:04;;;;;;;16.48;7.50;;;;;;;1.62;81.19;97473.75;4903123;29;20035;-79
2021/01/13 10:41:42;;;;;;;16.05;7.78;;;;;;;1.36;81.63;97469.09;4886486;29;20503;-79
2021/01/13 10:44:16;;;;;;;14.95;7.30;;;;;;;1.66;80.89;97480.91;4895432;29;20039;-79
2021/01/13 10:47:01;;;;;;;11.35;5.45;;;;;;;1.74;80.71;97481.78;4872694;29;20547;-79
2021/01/13 10:49:36;;;;;;;11.20;5.80;;;;;;;1.60;80.25;97473.13;4905847;29;20020;-79
2021/01/13 10:52:11;;;;;;;11.07;5.65;;;;;;;1.64;80.71;97472.59;4887236;29;20064;-80
2021/01/13 10:54:39;;;;;;;13.93;5.93;;;;;;;1.63;80.20;97465.09;4909174;29;20593;-79
2021/01/13 10:57:07;;;;;;;13.18;6.13;;;;;;;1.63;81.37;97476.13;4888896;29;20039;-79
2021/01/13 10:59:34;;;;;;;12.90;6.72;;;;;;;1.63;81.41;97463.31;4898179;29;20064;-80
2021/01/13 11:02:04;;;;;;;10.73;5.22;;;;;;;1.67;80.93;97467.09;4914824;29;20524;-79
2021/01/13 11:04:33;;;;;;;11.13;5.13;;;;;;;1.66;80.73;97444.16;4896314;29;20091;-80
2021/01/13 11:07:09;;;;;;;10.82;5.38;;;;;;;1.60;81.18;97458.53;4895581;29;20044;-79
2021/01/13 11:09:45;;;;;;;11.93;5.88;;;;;;;1.64;80.91;97446.91;4916342;29;20036;-79
2021/01/13 11:12:18;;;;;;;8.80;5.03;;;;;;;1.54;81.11;97441.28;4920505;29;20042;-80
2021/01/13 11:14:49;;;;;;;10.32;5.95;;;;;;;1.64;82.18;97446.91;4905570;29;20031;-79
2021/01/13 11:17:27;;;;;;;13.73;6.18;;;;;;;1.52;81.24;97438.09;4897747;29;20036;-81
2021/01/13 11:19:53;;;;;;;8.35;5.20;;;;;;;1.79;81.02;97443.53;4924778;29;20068;-80
2021/01/13 11:22:21;;;;;;;10.80;5.40;;;;;;;1.82;81.41;97435.47;4912133;29;20071;-80
2021/01/13 11:24:50;;;;;;;8.18;4.55;;;;;;;1.69;81.21;97418.94;4897662;29;20028;-79
2021/01/13 11:27:21;;;;;;;9.85;5.00;;;;;;;1.66;81.14;97413.38;4898211;29;20063;-80
2021/01/13 11:29:52;;;;;;;8.27;4.15;;;;;;;1.62;81.57;97405.25;4897161;29;20036;-81
2021/01/13 11:32:20;;;;;;;12.50;5.00;;;;;;;1.75;81.69;97407.16;4899736;29;20033;-80
2021/01/13 11:34:48;;;;;;;10.68;4.70;;;;;;;1.59;81.94;97403.03;4915877;29;20127;-79
2021/01/13 11:37:18;;;;;;;9.50;4.60;;;;;;;1.79;81.35;97402.47;4896838;29;20032;-80
2021/01/13 11:39:52;;;;;;;9.57;4.43;;;;;;;1.80;80.95;97389.44;4914788;29;20100;-79
2021/01/13 11:42:43;;;;;;;9.60;4.05;;;;;;;1.80;81.16;97394.59;4896879;29;20036;-79
2021/01/13 11:45:17;;;;;;;8.93;4.30;;;;;;;1.75;81.29;97389.19;4914831;29;20121;-79
2021/01/13 11:47:49;;;;;;;9.13;3.78;;;;;;;1.80;80.82;97373.22;4896600;29;20047;-78
2021/01/13 11:50:19;;;;;;;15.52;5.32;;;;;;;1.84;80.73;97370.13;4866172;29;20043;-78
2021/01/13 11:52:45;;;;;;;9.70;4.80;;;;;;;1.97;81.52;97382.31;4896408;29;20080;-78
2021/01/13 11:55:12;;;;;;;7.07;3.50;;;;;;;1.98;80.25;97375.38;4897319;29;20559;-79
2021/01/13 11:57:38;;;;;;;10.13;4.63;;;;;;;2.09;80.59;97371.50;4914381;29;20052;-78